< < Back
Terminal Aerodrome Forecast


Current Version              Previous Versions:   1  2  3  4  5  6  7  8  9  

Terminal Aerodrome Forecast

468
FTUS42 KFFC 281940 AAA
TAFCSG
TAF AMD
KCSG 281940Z 2820/2918 32012G18KT P6SM SKC
     FM282200 31008KT P6SM SCT060
     FM290300 VRB03KT P6SM SKC
     FM291100 05005KT P6SM SKC
     FM291600 12007KT P6SM SKC=



Latest METAR

482
SAUS70 KWBC 282300
MTRCSG
METAR KCSG 282251Z 35011KT 10SM BKN110 12/M12 A3018 RMK AO2 SLP218
T01221117


USA.gov is the U.S. government's official web portal to all federal, state and local government web resources and services.